Time;durP1;ratioP1;P1;durP2;ratioP2;P2;SDS_P1;SDS_P2;PMS_P1;PMS_P2;Temp;Humidity;BMP_temperature;BMP_pressure;BME280_temperature;BME280_humidity;BME280_pressure;Samples;Min_cycle;Max_cycle;Signal;HPM_P1;HPM_P2
2021/11/30 00:01:23;;;;;;;;;;;4.90;99.90;;;;;;5044526;28;20003;-76
2021/11/30 00:03:49;;;;;;;;;;;4.80;99.90;;;;;;5054918;28;20276;-76
2021/11/30 00:06:14;;;;;;;;;;;4.80;99.90;;;;;;5053708;28;19917;-75
2021/11/30 00:08:41;;;;;;;;;;;4.80;99.90;;;;;;5057971;28;20003;-75
2021/11/30 00:11:07;;;;;;;;;;;4.80;99.90;;;;;;5033814;28;19936;-75
2021/11/30 00:13:34;;;;;;;;;;;4.80;99.90;;;;;;5055380;28;19960;-76
2021/11/30 00:15:59;;;;;;;;;;;4.80;99.90;;;;;;5051427;28;19916;-76
2021/11/30 00:18:26;;;;;;;;;;;4.80;99.90;;;;;;5053522;28;20263;-75
2021/11/30 00:20:52;;;;;;;;;;;4.80;99.90;;;;;;5041058;28;19928;-75
2021/11/30 00:23:18;;;;;;;;;;;4.80;99.90;;;;;;5044239;28;19920;-76
2021/11/30 00:25:44;;;;;;;;;;;4.80;99.90;;;;;;5040854;28;20219;-76
2021/11/30 00:28:09;;;;;;;;;;;4.70;99.90;;;;;;5044118;28;19920;-75
2021/11/30 00:30:36;;;;;;;;;;;4.70;99.90;;;;;;5047945;28;19939;-76
2021/11/30 00:33:03;;;;;;;;;;;4.70;99.90;;;;;;5050973;28;19913;-75
2021/11/30 00:35:28;;;;;;;;;;;4.70;99.90;;;;;;5042996;28;19932;-75
2021/11/30 00:37:54;;;;;;;;;;;4.60;99.90;;;;;;5043343;28;19928;-75
2021/11/30 00:40:20;;;;;;;;;;;4.60;99.90;;;;;;5032687;28;20180;-75
2021/11/30 00:42:46;;;;;;;;;;;4.60;99.90;;;;;;5047759;28;19913;-75
2021/11/30 00:45:16;;;;;;;;;;;4.60;99.90;;;;;;5047034;28;19998;-75
2021/11/30 00:47:58;;;;;;;;;;;4.50;99.90;;;;;;5054482;28;19912;-75
2021/11/30 00:50:26;;;;;;;;;;;4.50;99.90;;;;;;5034687;28;19913;-75
2021/11/30 00:52:53;;;;;;;;;;;4.40;99.90;;;;;;5052505;28;19913;-75
2021/11/30 00:55:19;;;;;;;;;;;4.40;99.90;;;;;;5050891;28;19975;-76
2021/11/30 00:57:45;;;;;;;;;;;4.40;99.90;;;;;;5032831;28;19913;-75
2021/11/30 01:00:12;;;;;;;;;;;4.50;99.90;;;;;;5053785;28;20240;-75
2021/11/30 01:02:37;;;;;;;;;;;4.50;99.90;;;;;;5050372;28;19917;-76
2021/11/30 01:05:04;;;;;;;;;;;4.50;99.90;;;;;;5053777;28;19916;-75
2021/11/30 01:07:30;;;;;;;;;;;4.40;99.90;;;;;;5054200;28;19923;-74
2021/11/30 01:09:55;;;;;;;;;;;4.40;99.90;;;;;;5052269;28;19913;-75
2021/11/30 01:12:21;;;;;;;;;;;4.50;99.90;;;;;;5051872;28;19912;-75
2021/11/30 01:14:47;;;;;;;;;;;4.50;99.90;;;;;;5051222;28;19919;-75
2021/11/30 01:17:12;;;;;;;;;;;4.40;99.90;;;;;;5050440;28;19928;-75
2021/11/30 01:19:38;;;;;;;;;;;4.50;99.90;;;;;;5054275;28;19925;-76
2021/11/30 01:22:05;;;;;;;;;;;4.40;99.90;;;;;;5035339;28;19959;-75
2021/11/30 01:24:31;;;;;;;;;;;4.40;99.90;;;;;;5048326;28;19921;-74
2021/11/30 01:26:56;;;;;;;;;;;4.40;99.90;;;;;;5036061;28;20311;-75
2021/11/30 01:29:22;;;;;;;;;;;4.40;99.90;;;;;;5048246;28;19913;-74
2021/11/30 01:31:47;;;;;;;;;;;4.50;99.90;;;;;;5035447;28;19920;-75
2021/11/30 01:34:13;;;;;;;;;;;4.50;99.90;;;;;;5053177;28;20031;-74
2021/11/30 01:36:39;;;;;;;;;;;4.50;99.90;;;;;;5032417;28;19924;-74
2021/11/30 01:39:05;;;;;;;;;;;4.50;99.90;;;;;;5053006;28;20230;-75
2021/11/30 01:41:33;;;;;;;;;;;4.50;99.90;;;;;;5048242;28;19924;-74
2021/11/30 01:44:01;;;;;;;;;;;4.50;99.90;;;;;;5034989;28;20015;-75
2021/11/30 01:46:29;;;;;;;;;;;4.60;99.90;;;;;;5052444;28;20285;-74
2021/11/30 01:51:39;;;;;;;;;;;4.60;99.90;;;;;;5046878;28;19924;-75
2021/11/30 01:54:05;;;;;;;;;;;4.70;99.90;;;;;;5035373;28;19913;-75
2021/11/30 01:56:30;;;;;;;;;;;4.60;99.90;;;;;;5048328;28;20322;-74
2021/11/30 01:58:56;;;;;;;;;;;4.70;99.90;;;;;;5050579;28;20432;-74
2021/11/30 02:01:22;;;;;;;;;;;4.70;99.90;;;;;;5031486;28;19963;-74
2021/11/30 02:03:48;;;;;;;;;;;4.70;99.90;;;;;;5048931;28;19966;-74
2021/11/30 02:06:14;;;;;;;;;;;4.70;99.90;;;;;;5053613;28;20590;-73
2021/11/30 02:08:40;;;;;;;;;;;4.70;99.90;;;;;;5052972;28;20066;-74
2021/11/30 02:11:06;;;;;;;;;;;4.80;99.90;;;;;;5052191;28;19999;-76
2021/11/30 02:13:31;;;;;;;;;;;4.80;99.90;;;;;;5030505;28;19967;-74
2021/11/30 02:15:59;;;;;;;;;;;4.80;99.90;;;;;;5033165;28;19917;-74
2021/11/30 02:18:25;;;;;;;;;;;4.80;99.90;;;;;;5048129;28;20015;-74
2021/11/30 02:20:54;;;;;;;;;;;4.80;99.90;;;;;;5032220;28;20430;-74
2021/11/30 02:23:43;;;;;;;;;;;4.70;99.90;;;;;;5052183;28;19949;-73
2021/11/30 02:26:09;;;;;;;;;;;4.70;99.90;;;;;;5049605;28;20008;-75
2021/11/30 02:28:35;;;;;;;;;;;4.60;99.90;;;;;;5050189;28;19932;-73
2021/11/30 02:31:01;;;;;;;;;;;4.70;99.90;;;;;;5044950;28;19929;-75
2021/11/30 02:33:26;;;;;;;;;;;4.70;99.90;;;;;;5042202;28;20011;-74
2021/11/30 02:35:53;;;;;;;;;;;4.70;99.90;;;;;;5044344;28;19966;-73
2021/11/30 02:38:18;;;;;;;;;;;4.70;99.90;;;;;;5053390;28;20008;-73
2021/11/30 02:40:44;;;;;;;;;;;4.80;99.90;;;;;;5047925;28;20291;-73
2021/11/30 02:43:09;;;;;;;;;;;4.80;99.90;;;;;;5034049;28;20322;-73
2021/11/30 02:45:35;;;;;;;;;;;4.90;99.90;;;;;;5031502;28;19928;-73
2021/11/30 02:48:02;;;;;;;;;;;4.90;99.90;;;;;;5052806;28;19921;-73
2021/11/30 02:50:28;;;;;;;;;;;4.90;99.90;;;;;;5047865;28;19917;-72
2021/11/30 02:52:55;;;;;;;;;;;5.20;99.90;;;;;;5012719;28;19949;-73
2021/11/30 02:55:22;;;;;;;;;;;5.70;99.90;;;;;;5050727;28;20012;-73
2021/11/30 02:57:48;;;;;;;;;;;6.10;99.90;;;;;;5037044;28;19917;-73
2021/11/30 03:00:14;;;;;;;;;;;6.30;99.90;;;;;;5054866;28;19932;-73
2021/11/30 03:02:40;;;;;;;;;;;6.50;99.90;;;;;;5052249;28;19917;-73
2021/11/30 03:05:06;;;;;;;;;;;6.60;99.90;;;;;;5035942;28;19919;-73
2021/11/30 03:07:38;;;;;;;;;;;6.80;99.90;;;;;;5037940;28;20050;-73
2021/11/30 03:10:04;;;;;;;;;;;6.90;99.90;;;;;;5037165;28;20189;-73
2021/11/30 03:12:29;;;;;;;;;;;7.00;99.90;;;;;;5051602;28;19916;-73
2021/11/30 03:14:55;;;;;;;;;;;7.00;99.90;;;;;;5034848;28;19964;-74
2021/11/30 03:17:21;;;;;;;;;;;7.10;99.90;;;;;;5052051;28;19931;-74
2021/11/30 03:19:47;;;;;;;;;;;7.20;99.90;;;;;;5049923;28;19932;-73
2021/11/30 03:22:12;;;;;;;;;;;7.20;99.90;;;;;;5055372;28;19913;-74
2021/11/30 03:24:38;;;;;;;;;;;7.30;99.90;;;;;;5054560;28;19948;-74
2021/11/30 03:27:04;;;;;;;;;;;7.30;99.90;;;;;;5053366;28;19947;-74
2021/11/30 03:29:29;;;;;;;;;;;7.40;99.90;;;;;;5046387;28;19970;-73
2021/11/30 03:32:03;;;;;;;;;;;7.40;99.90;;;;;;5049373;28;19920;-75
2021/11/30 03:34:29;;;;;;;;;;;7.50;99.90;;;;;;5050849;28;19959;-73
2021/11/30 03:36:55;;;;;;;;;;;7.50;99.90;;;;;;5036842;28;19913;-75
2021/11/30 03:39:22;;;;;;;;;;;7.50;99.90;;;;;;5052947;28;20228;-75
2021/11/30 03:41:49;;;;;;;;;;;7.60;99.90;;;;;;5036721;28;20319;-74
2021/11/30 03:44:14;;;;;;;;;;;7.60;99.90;;;;;;5051929;28;19947;-74
2021/11/30 03:46:40;;;;;;;;;;;7.60;99.90;;;;;;5033126;28;19948;-75
2021/11/30 03:49:07;;;;;;;;;;;7.60;99.90;;;;;;5052528;28;19924;-75
2021/11/30 03:51:32;;;;;;;;;;;7.70;99.90;;;;;;5029668;28;19963;-74
2021/11/30 03:53:58;;;;;;;;;;;7.70;99.90;;;;;;5034302;28;19913;-74
2021/11/30 03:56:25;;;;;;;;;;;7.80;99.90;;;;;;5051326;28;19913;-82
2021/11/30 03:58:50;;;;;;;;;;;7.80;99.90;;;;;;5034847;28;20008;-74
2021/11/30 04:01:16;;;;;;;;;;;7.80;99.90;;;;;;5028657;28;20024;-75
2021/11/30 04:03:42;;;;;;;;;;;7.80;99.90;;;;;;5052029;28;20304;-74
2021/11/30 04:06:08;;;;;;;;;;;7.80;99.90;;;;;;5052321;28;20216;-75
2021/11/30 04:08:37;;;;;;;;;;;7.90;99.90;;;;;;5053333;28;19999;-74
2021/11/30 04:11:03;;;;;;;;;;;7.90;99.90;;;;;;5037224;28;19928;-73
2021/11/30 04:13:28;;;;;;;;;;;7.90;99.90;;;;;;5054448;28;19913;-74
2021/11/30 04:15:54;;;;;;;;;;;7.90;99.90;;;;;;5049587;28;19923;-74
2021/11/30 04:18:20;;;;;;;;;;;7.90;99.90;;;;;;5052630;28;20343;-75
2021/11/30 04:20:45;;;;;;;;;;;8.00;99.90;;;;;;5054374;28;19925;-75
2021/11/30 04:23:11;;;;;;;;;;;7.90;99.90;;;;;;5035236;28;20057;-75
2021/11/30 04:25:36;;;;;;;;;;;8.00;99.90;;;;;;5053409;28;19913;-75
2021/11/30 04:28:02;;;;;;;;;;;8.00;99.90;;;;;;5034610;28;20007;-74
2021/11/30 04:30:28;;;;;;;;;;;8.00;99.90;;;;;;5036562;28;19966;-73
2021/11/30 04:32:53;;;;;;;;;;;8.10;99.90;;;;;;5053736;28;20446;-75
2021/11/30 04:35:19;;;;;;;;;;;8.10;99.90;;;;;;5029514;28;19917;-74
2021/11/30 04:37:44;;;;;;;;;;;8.10;99.90;;;;;;5031530;28;19917;-74
2021/11/30 04:40:11;;;;;;;;;;;8.20;99.90;;;;;;5052373;28;20011;-75
2021/11/30 04:42:38;;;;;;;;;;;8.20;99.90;;;;;;5054435;28;19912;-74
2021/11/30 04:45:09;;;;;;;;;;;8.20;99.90;;;;;;5053064;28;19917;-74
2021/11/30 04:47:38;;;;;;;;;;;8.30;99.90;;;;;;5053449;28;20016;-75
2021/11/30 04:50:08;;;;;;;;;;;8.30;99.90;;;;;;5035331;28;20008;-74
2021/11/30 04:52:35;;;;;;;;;;;8.20;99.90;;;;;;5053602;28;19936;-74
2021/11/30 04:55:00;;;;;;;;;;;8.30;99.90;;;;;;5026473;28;19996;-74
2021/11/30 04:57:26;;;;;;;;;;;8.30;99.90;;;;;;5052528;28;20016;-75
2021/11/30 04:59:51;;;;;;;;;;;8.30;99.90;;;;;;5049767;28;20335;-74
2021/11/30 05:02:18;;;;;;;;;;;8.30;99.90;;;;;;5052186;28;19920;-76
2021/11/30 05:04:46;;;;;;;;;;;8.30;99.90;;;;;;5033247;28;19917;-75
2021/11/30 05:07:12;;;;;;;;;;;8.30;99.90;;;;;;5049363;28;19929;-74
2021/11/30 05:09:38;;;;;;;;;;;8.30;99.90;;;;;;5043535;28;19916;-75
2021/11/30 05:12:03;;;;;;;;;;;8.40;99.90;;;;;;5021679;28;20599;-73
2021/11/30 05:14:29;;;;;;;;;;;8.40;99.90;;;;;;5043279;28;19978;-74
2021/11/30 05:16:55;;;;;;;;;;;8.40;99.90;;;;;;5046503;28;19975;-75
2021/11/30 05:19:20;;;;;;;;;;;8.40;99.90;;;;;;5029708;28;19960;-75
2021/11/30 05:21:46;;;;;;;;;;;8.40;99.90;;;;;;5037951;28;19924;-74
2021/11/30 05:24:11;;;;;;;;;;;8.40;99.90;;;;;;5040925;28;20019;-75
2021/11/30 05:26:37;;;;;;;;;;;8.40;99.90;;;;;;5043508;28;19921;-75
2021/11/30 05:29:03;;;;;;;;;;;8.40;99.90;;;;;;5039496;28;19917;-75
2021/11/30 05:31:29;;;;;;;;;;;8.50;99.90;;;;;;5040235;28;20250;-74
2021/11/30 05:33:55;;;;;;;;;;;8.50;99.90;;;;;;5051749;28;20003;-76
2021/11/30 05:36:21;;;;;;;;;;;8.50;99.90;;;;;;5048497;28;20296;-75
2021/11/30 05:38:47;;;;;;;;;;;8.50;99.90;;;;;;5046783;28;19919;-74
2021/11/30 05:41:13;;;;;;;;;;;8.50;99.90;;;;;;5031975;28;19929;-75
2021/11/30 05:43:38;;;;;;;;;;;8.60;99.90;;;;;;5041098;28;20577;-74
2021/11/30 05:46:04;;;;;;;;;;;8.60;99.90;;;;;;5042205;28;19917;-76
2021/11/30 05:48:32;;;;;;;;;;;8.60;99.90;;;;;;5020035;28;20054;-75
2021/11/30 05:50:58;;;;;;;;;;;8.60;99.90;;;;;;5031759;28;20357;-75
2021/11/30 05:53:24;;;;;;;;;;;8.60;99.90;;;;;;5037429;28;20027;-74
2021/11/30 05:55:53;;;;;;;;;;;8.70;99.90;;;;;;5036648;28;19920;-74
2021/11/30 05:58:19;;;;;;;;;;;8.70;99.90;;;;;;5027939;28;20208;-76
2021/11/30 06:00:45;;;;;;;;;;;8.70;99.90;;;;;;5034709;28;19925;-76
2021/11/30 06:05:46;;;;;;;;;;;8.70;99.90;;;;;;5051264;28;19917;-75
2021/11/30 06:08:11;;;;;;;;;;;8.80;99.90;;;;;;5036231;28;19952;-75
2021/11/30 06:10:37;;;;;;;;;;;8.80;99.90;;;;;;5031840;28;19944;-75
2021/11/30 06:13:03;;;;;;;;;;;8.80;99.90;;;;;;5033193;28;20011;-75
2021/11/30 06:15:28;;;;;;;;;;;8.80;99.90;;;;;;5052420;28;19913;-75
2021/11/30 06:17:54;;;;;;;;;;;8.80;99.90;;;;;;5051931;28;19924;-74
2021/11/30 06:20:21;;;;;;;;;;;8.80;99.90;;;;;;5047396;28;19924;-75
2021/11/30 06:22:47;;;;;;;;;;;8.90;99.90;;;;;;5029203;28;19943;-75
2021/11/30 06:25:12;;;;;;;;;;;8.80;99.90;;;;;;5036246;28;20223;-75
2021/11/30 06:27:38;;;;;;;;;;;8.90;99.90;;;;;;5056964;28;19913;-76
2021/11/30 06:30:05;;;;;;;;;;;8.90;99.90;;;;;;5056128;28;19921;-74
2021/11/30 06:32:30;;;;;;;;;;;8.90;99.90;;;;;;5056424;28;20263;-75
2021/11/30 06:34:56;;;;;;;;;;;8.90;99.90;;;;;;5038285;28;19923;-76
2021/11/30 06:37:22;;;;;;;;;;;8.90;99.90;;;;;;5039754;28;20294;-74
2021/11/30 06:39:47;;;;;;;;;;;8.90;99.90;;;;;;5054476;28;19986;-75
2021/11/30 06:42:13;;;;;;;;;;;8.90;99.90;;;;;;5055736;28;20012;-75
2021/11/30 06:44:38;;;;;;;;;;;8.90;99.90;;;;;;5039055;28;19913;-75
2021/11/30 06:47:05;;;;;;;;;;;9.00;99.90;;;;;;5036019;28;20007;-75
2021/11/30 06:49:31;;;;;;;;;;;8.90;99.90;;;;;;5054044;28;19924;-75
2021/11/30 06:51:57;;;;;;;;;;;8.90;99.90;;;;;;5055117;28;19947;-77
2021/11/30 06:54:23;;;;;;;;;;;8.90;99.90;;;;;;5038465;28;19948;-74
2021/11/30 06:56:48;;;;;;;;;;;9.00;99.90;;;;;;5051425;28;19977;-74
2021/11/30 06:59:14;;;;;;;;;;;9.00;99.90;;;;;;5053216;28;19921;-75
2021/11/30 07:01:42;;;;;;;;;;;9.00;99.90;;;;;;5055086;28;19916;-75
2021/11/30 07:04:08;;;;;;;;;;;9.00;99.90;;;;;;5055653;28;19913;-74
2021/11/30 07:14:00;;;;;;;;;;;9.10;99.90;;;;;;5048434;28;20320;-75
2021/11/30 07:16:26;;;;;;;;;;;9.10;99.90;;;;;;5054008;28;19921;-75
2021/11/30 07:18:51;;;;;;;;;;;9.10;99.90;;;;;;5038220;28;20212;-76
2021/11/30 07:21:17;;;;;;;;;;;9.10;99.90;;;;;;5052782;28;20220;-74
2021/11/30 07:23:43;;;;;;;;;;;9.20;99.90;;;;;;5038147;28;19916;-75
2021/11/30 07:26:08;;;;;;;;;;;9.10;99.90;;;;;;5044349;28;19920;-75
2021/11/30 07:28:35;;;;;;;;;;;9.20;99.90;;;;;;5038564;28;19917;-75
2021/11/30 07:31:04;;;;;;;;;;;9.10;99.90;;;;;;5037674;28;19916;-76
2021/11/30 07:33:32;;;;;;;;;;;9.10;99.90;;;;;;5043013;28;19917;-76
2021/11/30 07:35:59;;;;;;;;;;;9.20;99.90;;;;;;5053817;28;20333;-75
2021/11/30 07:38:24;;;;;;;;;;;9.20;99.90;;;;;;5053738;28;19923;-75
2021/11/30 07:40:50;;;;;;;;;;;9.20;99.90;;;;;;5054629;28;20219;-74
2021/11/30 07:43:16;;;;;;;;;;;9.20;99.90;;;;;;5054585;28;19913;-73
2021/11/30 07:45:43;;;;;;;;;;;9.20;99.90;;;;;;5054679;28;19921;-75
2021/11/30 07:48:09;;;;;;;;;;;9.20;99.90;;;;;;5036736;28;19990;-74
2021/11/30 07:50:35;;;;;;;;;;;9.20;99.90;;;;;;5051048;28;20219;-75
2021/11/30 07:53:01;;;;;;;;;;;9.30;99.90;;;;;;5035716;28;19920;-75
2021/11/30 07:55:26;;;;;;;;;;;9.30;99.90;;;;;;5052347;28;19920;-74
2021/11/30 07:57:53;;;;;;;;;;;9.30;99.90;;;;;;5036297;28;19924;-76
2021/11/30 08:00:18;;;;;;;;;;;9.30;99.90;;;;;;5036174;28;19975;-76
2021/11/30 08:02:44;;;;;;;;;;;9.30;99.90;;;;;;5032998;28;19948;-75
2021/11/30 08:05:10;;;;;;;;;;;9.30;99.90;;;;;;5050665;28;20210;-74
2021/11/30 08:07:36;;;;;;;;;;;9.30;99.90;;;;;;5053968;28;19920;-73
2021/11/30 08:10:04;;;;;;;;;;;9.40;99.90;;;;;;5035247;28;20258;-74
2021/11/30 08:12:29;;;;;;;;;;;9.40;99.90;;;;;;5053191;28;19920;-73
2021/11/30 08:14:55;;;;;;;;;;;9.40;99.90;;;;;;5034674;28;19932;-75
2021/11/30 08:17:21;;;;;;;;;;;9.40;99.90;;;;;;5051884;28;19935;-75
2021/11/30 08:19:47;;;;;;;;;;;9.40;99.90;;;;;;5039997;28;20320;-76
2021/11/30 08:22:13;;;;;;;;;;;9.40;99.90;;;;;;5034066;28;19913;-74
2021/11/30 08:24:38;;;;;;;;;;;9.40;99.90;;;;;;5035122;28;19967;-76
2021/11/30 08:27:05;;;;;;;;;;;9.50;99.90;;;;;;5051428;28;19916;-76
2021/11/30 08:29:31;;;;;;;;;;;9.50;99.90;;;;;;5035290;28;19920;-74
2021/11/30 08:32:00;;;;;;;;;;;9.50;99.90;;;;;;5047975;28;19913;-76
2021/11/30 08:34:25;;;;;;;;;;;9.50;99.90;;;;;;5025475;28;20244;-76
2021/11/30 08:36:51;;;;;;;;;;;9.50;99.90;;;;;;5040894;28;19921;-74
2021/11/30 08:39:16;;;;;;;;;;;9.50;99.90;;;;;;5022206;28;19914;-77
2021/11/30 08:41:42;;;;;;;;;;;9.50;99.90;;;;;;5034775;28;20300;-77
2021/11/30 08:44:08;;;;;;;;;;;9.50;99.90;;;;;;5035647;28;19921;-75
2021/11/30 08:46:33;;;;;;;;;;;9.50;99.90;;;;;;5054531;28;19913;-78
2021/11/30 08:48:59;;;;;;;;;;;9.50;99.90;;;;;;5053701;28;19913;-76
2021/11/30 08:51:24;;;;;;;;;;;9.50;99.90;;;;;;5034286;28;19917;-75
2021/11/30 08:53:50;;;;;;;;;;;9.50;99.90;;;;;;5053150;28;19917;-75
2021/11/30 08:56:15;;;;;;;;;;;9.50;99.90;;;;;;5052050;28;20244;-73
2021/11/30 08:58:41;;;;;;;;;;;9.50;99.90;;;;;;5051474;28;20008;-73
2021/11/30 09:01:07;;;;;;;;;;;9.20;99.90;;;;;;5049606;28;19921;-73
2021/11/30 09:03:32;;;;;;;;;;;9.10;99.90;;;;;;5054314;28;20351;-74
2021/11/30 09:05:58;;;;;;;;;;;8.90;99.90;;;;;;5051457;28;19913;-75
2021/11/30 09:08:24;;;;;;;;;;;8.90;99.90;;;;;;5054468;28;19944;-74
2021/11/30 09:10:50;;;;;;;;;;;8.80;99.90;;;;;;5053452;28;19931;-74
2021/11/30 09:13:16;;;;;;;;;;;8.70;99.90;;;;;;5037144;28;19916;-75
2021/11/30 09:15:42;;;;;;;;;;;8.60;99.90;;;;;;5049071;28;19916;-74
2021/11/30 09:18:07;;;;;;;;;;;8.60;99.90;;;;;;5045372;28;19913;-74
2021/11/30 09:20:33;;;;;;;;;;;8.50;99.90;;;;;;5042533;28;20185;-74
2021/11/30 09:22:59;;;;;;;;;;;8.50;99.90;;;;;;5040926;28;20002;-74
2021/11/30 09:25:25;;;;;;;;;;;8.50;99.90;;;;;;5047378;28;19920;-74
2021/11/30 09:27:51;;;;;;;;;;;8.50;99.90;;;;;;5040393;28;19932;-74
2021/11/30 09:30:17;;;;;;;;;;;8.50;99.90;;;;;;5044258;28;19999;-73
2021/11/30 09:32:43;;;;;;;;;;;8.50;99.90;;;;;;5037379;28;20202;-73
2021/11/30 09:35:11;;;;;;;;;;;8.50;99.90;;;;;;5040368;28;19990;-74
2021/11/30 09:37:38;;;;;;;;;;;8.50;99.90;;;;;;5034267;28;19920;-73
2021/11/30 09:40:09;;;;;;;;;;;8.50;99.90;;;;;;5041044;28;19925;-73
2021/11/30 09:42:35;;;;;;;;;;;8.50;99.90;;;;;;5038332;28;20312;-73
2021/11/30 09:45:04;;;;;;;;;;;8.50;99.90;;;;;;5038835;28;19924;-74
2021/11/30 09:47:30;;;;;;;;;;;8.50;99.90;;;;;;5041146;28;19917;-73
2021/11/30 09:49:55;;;;;;;;;;;8.40;99.90;;;;;;5042996;28;19913;-74
2021/11/30 09:52:21;;;;;;;;;;;8.40;99.90;;;;;;5042725;28;20393;-73
2021/11/30 09:54:46;;;;;;;;;;;8.40;99.90;;;;;;5044091;28;20596;-74
2021/11/30 09:57:14;;;;;;;;;;;8.40;99.90;;;;;;5030765;28;19912;-73
2021/11/30 09:59:45;;;;;;;;;;;8.40;99.90;;;;;;5053269;28;19920;-75
2021/11/30 10:02:11;;;;;;;;;;;8.40;99.90;;;;;;5032116;28;20012;-73
2021/11/30 10:04:38;;;;;;;;;;;8.40;99.90;;;;;;5058415;28;20007;-74
2021/11/30 10:07:04;;;;;;;;;;;8.40;99.90;;;;;;5052075;28;20401;-79
2021/11/30 10:09:30;;;;;;;;;;;8.30;99.90;;;;;;5052541;28;19959;-75
2021/11/30 10:12:07;;;;;;;;;;;8.40;99.90;;;;;;5051949;28;20027;-74
2021/11/30 10:14:34;;;;;;;;;;;8.40;99.90;;;;;;5047149;28;19933;-82
2021/11/30 10:17:08;;;;;;;;;;;8.40;99.90;;;;;;5052542;28;20096;-74
2021/11/30 10:19:34;;;;;;;;;;;8.40;99.90;;;;;;5051806;28;20070;-74
2021/11/30 10:21:59;;;;;;;;;;;8.40;99.90;;;;;;5045934;28;21845;-77
2021/11/30 10:24:25;;;;;;;;;;;8.40;99.90;;;;;;5046583;28;19917;-74
2021/11/30 10:26:53;;;;;;;;;;;8.40;99.90;;;;;;5049663;28;19946;-75
2021/11/30 10:29:19;;;;;;;;;;;8.40;99.90;;;;;;5050889;28;19920;-74
2021/11/30 10:31:49;;;;;;;;;;;8.50;99.90;;;;;;5050278;28;19920;-75
2021/11/30 10:34:18;;;;;;;;;;;8.40;99.90;;;;;;5051244;28;19924;-74
2021/11/30 10:36:44;;;;;;;;;;;8.50;99.90;;;;;;5050741;28;20498;-74
2021/11/30 10:39:17;;;;;;;;;;;8.50;99.90;;;;;;5051274;28;19946;-74
2021/11/30 10:41:42;;;;;;;;;;;8.50;99.90;;;;;;5050765;28;20339;-74
2021/11/30 10:44:08;;;;;;;;;;;8.50;99.90;;;;;;5047018;28;19944;-74
2021/11/30 10:46:34;;;;;;;;;;;8.50;99.90;;;;;;5051179;28;20292;-74
2021/11/30 10:49:00;;;;;;;;;;;8.50;99.90;;;;;;5045836;28;19921;-74
2021/11/30 10:51:27;;;;;;;;;;;8.50;99.90;;;;;;5048145;28;19917;-74
2021/11/30 10:53:57;;;;;;;;;;;8.50;99.90;;;;;;5050493;28;19916;-74
2021/11/30 10:56:23;;;;;;;;;;;8.50;99.90;;;;;;5051312;28;20346;-73
2021/11/30 10:58:52;;;;;;;;;;;8.60;99.90;;;;;;5045036;28;19920;-74
2021/11/30 11:01:19;;;;;;;;;;;8.50;99.90;;;;;;5052024;28;19913;-74
2021/11/30 11:03:46;;;;;;;;;;;8.60;99.90;;;;;;5050679;28;19924;-74
2021/11/30 11:06:33;;;;;;;;;;;8.60;99.90;;;;;;5051395;28;19978;-74
2021/11/30 11:09:04;;;;;;;;;;;8.60;99.90;;;;;;5049815;28;19917;-74
2021/11/30 11:11:32;;;;;;;;;;;8.50;99.90;;;;;;5050442;28;19917;-74
2021/11/30 11:13:57;;;;;;;;;;;8.50;99.90;;;;;;5050381;28;19960;-74
2021/11/30 11:16:25;;;;;;;;;;;8.50;99.90;;;;;;5049800;28;19968;-74
2021/11/30 11:18:52;;;;;;;;;;;8.50;99.90;;;;;;5049612;28;20358;-73
2021/11/30 11:21:19;;;;;;;;;;;8.50;99.90;;;;;;5044377;28;19912;-73
2021/11/30 11:24:07;;;;;;;;;;;8.50;99.90;;;;;;5045822;28;21331;-73
2021/11/30 11:26:32;;;;;;;;;;;8.50;99.90;;;;;;5046896;28;19994;-74
2021/11/30 11:28:59;;;;;;;;;;;8.50;99.90;;;;;;5042747;28;19966;-73
2021/11/30 11:31:26;;;;;;;;;;;8.60;99.90;;;;;;5047679;28;20331;-73
2021/11/30 11:33:52;;;;;;;;;;;8.50;99.90;;;;;;5047568;28;19921;-73
2021/11/30 11:36:18;;;;;;;;;;;8.50;99.90;;;;;;5047435;28;19940;-73
2021/11/30 11:38:44;;;;;;;;;;;8.50;99.90;;;;;;5043140;28;19920;-74
2021/11/30 11:41:10;;;;;;;;;;;8.60;99.90;;;;;;5048022;28;19920;-73
2021/11/30 11:43:37;;;;;;;;;;;8.60;99.90;;;;;;5041109;28;19927;-73
2021/11/30 11:46:06;;;;;;;;;;;8.60;99.90;;;;;;5046884;28;19917;-73
2021/11/30 11:48:31;;;;;;;;;;;8.50;99.90;;;;;;5043410;28;20227;-73
2021/11/30 11:51:03;;;;;;;;;;;8.50;99.90;;;;;;5037451;28;19924;-73
2021/11/30 11:53:31;;;;;;;;;;;8.40;99.90;;;;;;5046998;28;19916;-73
2021/11/30 11:56:09;;;;;;;;;;;8.40;99.90;;;;;;5047206;28;19917;-73
2021/11/30 11:58:35;;;;;;;;;;;8.40;99.90;;;;;;5048603;28;20008;-73
2021/11/30 12:01:01;;;;;;;;;;;8.40;99.90;;;;;;5050167;28;20015;-73
2021/11/30 12:03:45;;;;;;;;;;;8.40;99.90;;;;;;5050019;28;20365;-73
2021/11/30 12:06:20;;;;;;;;;;;8.40;99.90;;;;;;5047268;28;20220;-73
2021/11/30 12:09:04;;;;;;;;;;;8.40;99.90;;;;;;5047528;28;19921;-73
2021/11/30 12:11:33;;;;;;;;;;;8.40;99.90;;;;;;5049360;28;20254;-73
2021/11/30 12:14:07;;;;;;;;;;;8.40;99.90;;;;;;5042667;28;19999;-73
2021/11/30 12:16:53;;;;;;;;;;;8.40;99.90;;;;;;5009437;28;20513;-74
2021/11/30 12:19:27;;;;;;;;;;;8.30;99.90;;;;;;5044606;28;19958;-73
2021/11/30 12:21:53;;;;;;;;;;;8.30;99.90;;;;;;5046170;28;19931;-73
2021/11/30 12:24:32;;;;;;;;;;;8.40;99.90;;;;;;5048294;28;19916;-73
2021/11/30 12:26:58;;;;;;;;;;;8.40;99.90;;;;;;5039063;28;19927;-73
2021/11/30 12:29:30;;;;;;;;;;;8.40;99.90;;;;;;5048044;28;20594;-73
2021/11/30 12:31:56;;;;;;;;;;;8.40;99.90;;;;;;5048153;28;20276;-73
2021/11/30 12:34:32;;;;;;;;;;;8.40;99.90;;;;;;5047468;28;19921;-74
2021/11/30 12:37:06;;;;;;;;;;;8.40;99.90;;;;;;5046519;28;19974;-73
2021/11/30 12:39:50;;;;;;;;;;;8.40;99.90;;;;;;5048279;28;19931;-73
2021/11/30 12:42:16;;;;;;;;;;;8.40;99.90;;;;;;5050500;28;19921;-74
2021/11/30 12:44:45;;;;;;;;;;;8.40;99.90;;;;;;5047128;28;19938;-74
2021/11/30 12:47:21;;;;;;;;;;;8.50;99.90;;;;;;5047137;28;19927;-74
2021/11/30 12:49:47;;;;;;;;;;;8.50;99.90;;;;;;5046164;28;19917;-74
2021/11/30 12:52:23;;;;;;;;;;;8.50;99.90;;;;;;5046708;28;19917;-73
2021/11/30 12:54:50;;;;;;;;;;;8.50;99.90;;;;;;5045503;28;19920;-84
2021/11/30 12:57:20;;;;;;;;;;;8.50;99.90;;;;;;5046959;28;20583;-73
2021/11/30 12:59:46;;;;;;;;;;;8.50;99.90;;;;;;5038602;28;19932;-73
2021/11/30 13:02:22;;;;;;;;;;;8.50;99.90;;;;;;5047417;28;20283;-74
2021/11/30 13:04:53;;;;;;;;;;;8.50;99.90;;;;;;5047644;28;19917;-73
2021/11/30 13:07:20;;;;;;;;;;;8.50;99.90;;;;;;5046630;28;20297;-73
2021/11/30 13:09:47;;;;;;;;;;;8.60;99.90;;;;;;5047413;28;20599;-73
2021/11/30 13:12:23;;;;;;;;;;;8.60;99.90;;;;;;5047047;28;19917;-73
2021/11/30 13:14:49;;;;;;;;;;;8.60;99.90;;;;;;5047324;28;19964;-73
2021/11/30 13:17:15;;;;;;;;;;;8.50;99.90;;;;;;5036590;28;19924;-73
2021/11/30 13:19:43;;;;;;;;;;;8.60;99.90;;;;;;5038667;28;19928;-73
2021/11/30 13:22:09;;;;;;;;;;;8.50;99.90;;;;;;5030473;28;19955;-73
2021/11/30 13:24:37;;;;;;;;;;;8.50;99.90;;;;;;5047337;28;19924;-74
2021/11/30 13:27:13;;;;;;;;;;;8.50;99.90;;;;;;5048083;28;19956;-74
2021/11/30 13:29:50;;;;;;;;;;;8.40;99.90;;;;;;5046124;28;20006;-73
2021/11/30 13:32:21;;;;;;;;;;;8.40;99.90;;;;;;5038400;28;19971;-73
2021/11/30 13:35:03;;;;;;;;;;;8.40;99.90;;;;;;5046626;28;20383;-73
2021/11/30 13:37:28;;;;;;;;;;;8.40;99.90;;;;;;5048212;28;19916;-73
2021/11/30 13:39:54;;;;;;;;;;;8.40;99.90;;;;;;5046697;28;19928;-73
2021/11/30 13:42:19;;;;;;;;;;;8.40;99.90;;;;;;5039640;28;20012;-74
2021/11/30 13:44:48;;;;;;;;;;;8.40;99.90;;;;;;5046005;28;19964;-74
2021/11/30 13:47:14;;;;;;;;;;;8.40;99.90;;;;;;5038371;28;19927;-73
2021/11/30 13:49:41;;;;;;;;;;;8.40;99.90;;;;;;5038400;28;19917;-73
2021/11/30 13:52:17;;;;;;;;;;;8.30;99.90;;;;;;5047355;28;20308;-73
2021/11/30 13:54:49;;;;;;;;;;;8.40;99.90;;;;;;5046011;28;19920;-74
2021/11/30 13:57:17;;;;;;;;;;;8.30;99.90;;;;;;5036425;28;20010;-73
2021/11/30 13:59:46;;;;;;;;;;;8.30;99.90;;;;;;5047570;28;19925;-74
2021/11/30 14:02:11;;;;;;;;;;;8.30;99.90;;;;;;5039734;28;19921;-73
2021/11/30 14:04:38;;;;;;;;;;;8.30;99.90;;;;;;5042261;28;19924;-74
2021/11/30 14:07:06;;;;;;;;;;;8.30;99.90;;;;;;5041394;28;19921;-73
2021/11/30 14:09:40;;;;;;;;;;;8.30;99.90;;;;;;5038764;28;19921;-74
2021/11/30 14:12:08;;;;;;;;;;;8.30;99.90;;;;;;5047442;28;20012;-74
2021/11/30 14:14:35;;;;;;;;;;;8.30;99.90;;;;;;5038175;28;19920;-74
2021/11/30 14:17:04;;;;;;;;;;;8.30;99.90;;;;;;5045472;28;19921;-73
2021/11/30 14:19:37;;;;;;;;;;;8.30;99.90;;;;;;5043755;28;19924;-73
2021/11/30 14:22:05;;;;;;;;;;;8.30;99.90;;;;;;5044241;28;20346;-73
2021/11/30 14:24:33;;;;;;;;;;;8.30;99.90;;;;;;5047647;28;20332;-73
2021/11/30 14:27:10;;;;;;;;;;;8.30;99.90;;;;;;5042614;28;19917;-74
2021/11/30 14:29:37;;;;;;;;;;;8.30;99.90;;;;;;5047428;28;19979;-73
2021/11/30 14:32:06;;;;;;;;;;;8.30;99.90;;;;;;5048073;28;19917;-73
2021/11/30 14:34:36;;;;;;;;;;;8.30;99.90;;;;;;5046337;28;19948;-73
2021/11/30 14:37:20;;;;;;;;;;;8.30;99.90;;;;;;5047501;28;19921;-73
2021/11/30 14:39:46;;;;;;;;;;;8.30;99.90;;;;;;5047362;28;20020;-74
2021/11/30 14:42:24;;;;;;;;;;;8.30;99.90;;;;;;5047093;28;19967;-73
2021/11/30 14:45:10;;;;;;;;;;;8.30;99.90;;;;;;5048073;28;19943;-73